sensor_id;sensor_type;location;lat;lon;timestamp;P1;durP1;ratioP1;P2;durP2;ratioP2
31770;SDS011;18343;50.152;8.182;2023-03-30T00:00:14;10.45;;;2.63;;
31770;SDS011;18343;50.152;8.182;2023-03-30T00:02:44;6.65;;;2.22;;
31770;SDS011;18343;50.152;8.182;2023-03-30T00:05:15;4.85;;;2.40;;
31770;SDS011;18343;50.152;8.182;2023-03-30T00:07:43;11.85;;;2.45;;
31770;SDS011;18343;50.152;8.182;2023-03-30T00:10:11;10.07;;;2.75;;
31770;SDS011;18343;50.152;8.182;2023-03-30T00:12:43;10.15;;;2.58;;
31770;SDS011;18343;50.152;8.182;2023-03-30T00:15:11;6.28;;;2.35;;
31770;SDS011;18343;50.152;8.182;2023-03-30T00:17:40;14.38;;;2.60;;
31770;SDS011;18343;50.152;8.182;2023-03-30T00:20:08;12.18;;;2.17;;
31770;SDS011;18343;50.152;8.182;2023-03-30T00:22:39;7.00;;;2.20;;
31770;SDS011;18343;50.152;8.182;2023-03-30T00:25:08;12.00;;;2.30;;
31770;SDS011;18343;50.152;8.182;2023-03-30T00:27:38;8.77;;;2.33;;
31770;SDS011;18343;50.152;8.182;2023-03-30T00:30:07;7.32;;;2.42;;
31770;SDS011;18343;50.152;8.182;2023-03-30T00:32:38;6.75;;;2.25;;
31770;SDS011;18343;50.152;8.182;2023-03-30T00:35:06;7.82;;;2.85;;
31770;SDS011;18343;50.152;8.182;2023-03-30T00:37:34;9.80;;;2.78;;
31770;SDS011;18343;50.152;8.182;2023-03-30T00:40:04;9.65;;;3.10;;
31770;SDS011;18343;50.152;8.182;2023-03-30T00:42:34;12.45;;;2.60;;
31770;SDS011;18343;50.152;8.182;2023-03-30T00:45:11;13.23;;;2.92;;
31770;SDS011;18343;50.152;8.182;2023-03-30T00:47:44;16.02;;;2.22;;
31770;SDS011;18343;50.152;8.182;2023-03-30T00:50:17;10.40;;;2.08;;
31770;SDS011;18343;50.152;8.182;2023-03-30T00:52:47;8.25;;;2.80;;
31770;SDS011;18343;50.152;8.182;2023-03-30T00:55:18;12.35;;;3.00;;
31770;SDS011;18343;50.152;8.182;2023-03-30T00:57:49;7.40;;;2.20;;
31770;SDS011;18343;50.152;8.182;2023-03-30T01:00:17;11.32;;;2.72;;
31770;SDS011;18343;50.152;8.182;2023-03-30T01:02:48;7.70;;;2.50;;
31770;SDS011;18343;50.152;8.182;2023-03-30T01:07:49;9.30;;;2.25;;
31770;SDS011;18343;50.152;8.182;2023-03-30T01:10:18;8.50;;;2.97;;
31770;SDS011;18343;50.152;8.182;2023-03-30T01:12:46;9.77;;;2.38;;
31770;SDS011;18343;50.152;8.182;2023-03-30T01:15:13;8.68;;;2.63;;
31770;SDS011;18343;50.152;8.182;2023-03-30T01:17:52;10.43;;;3.25;;
31770;SDS011;18343;50.152;8.182;2023-03-30T01:23:54;7.18;;;2.80;;
31770;SDS011;18343;50.152;8.182;2023-03-30T01:27:20;10.10;;;3.05;;
31770;SDS011;18343;50.152;8.182;2023-03-30T01:30:30;13.50;;;3.22;;
31770;SDS011;18343;50.152;8.182;2023-03-30T01:33:21;7.10;;;2.92;;
31770;SDS011;18343;50.152;8.182;2023-03-30T01:39:28;10.57;;;2.97;;
31770;SDS011;18343;50.152;8.182;2023-03-30T01:42:14;10.55;;;2.90;;
31770;SDS011;18343;50.152;8.182;2023-03-30T01:44:48;13.50;;;2.90;;
31770;SDS011;18343;50.152;8.182;2023-03-30T01:47:26;9.38;;;2.97;;
31770;SDS011;18343;50.152;8.182;2023-03-30T01:50:02;8.55;;;3.05;;
31770;SDS011;18343;50.152;8.182;2023-03-30T01:52:35;15.73;;;2.80;;
31770;SDS011;18343;50.152;8.182;2023-03-30T01:55:09;7.57;;;2.55;;
31770;SDS011;18343;50.152;8.182;2023-03-30T01:57:41;7.90;;;2.85;;
31770;SDS011;18343;50.152;8.182;2023-03-30T02:00:15;8.60;;;2.58;;
31770;SDS011;18343;50.152;8.182;2023-03-30T02:02:47;13.10;;;2.78;;
31770;SDS011;18343;50.152;8.182;2023-03-30T02:05:18;7.65;;;2.53;;
31770;SDS011;18343;50.152;8.182;2023-03-30T02:07:48;11.57;;;2.55;;
31770;SDS011;18343;50.152;8.182;2023-03-30T02:10:22;7.85;;;2.03;;
31770;SDS011;18343;50.152;8.182;2023-03-30T02:12:53;16.42;;;3.47;;
31770;SDS011;18343;50.152;8.182;2023-03-30T02:15:23;12.13;;;3.22;;
31770;SDS011;18343;50.152;8.182;2023-03-30T02:17:58;7.20;;;2.53;;
31770;SDS011;18343;50.152;8.182;2023-03-30T02:20:25;15.73;;;2.85;;
31770;SDS011;18343;50.152;8.182;2023-03-30T02:22:53;6.90;;;2.40;;
31770;SDS011;18343;50.152;8.182;2023-03-30T02:25:22;12.35;;;2.28;;
31770;SDS011;18343;50.152;8.182;2023-03-30T02:27:50;11.07;;;2.25;;
31770;SDS011;18343;50.152;8.182;2023-03-30T02:30:17;10.45;;;2.60;;
31770;SDS011;18343;50.152;8.182;2023-03-30T02:32:45;8.27;;;2.30;;
31770;SDS011;18343;50.152;8.182;2023-03-30T02:35:28;11.00;;;2.67;;
31770;SDS011;18343;50.152;8.182;2023-03-30T02:41:31;11.10;;;1.95;;
31770;SDS011;18343;50.152;8.182;2023-03-30T02:44:38;10.40;;;2.22;;
31770;SDS011;18343;50.152;8.182;2023-03-30T02:47:13;16.15;;;2.58;;
31770;SDS011;18343;50.152;8.182;2023-03-30T02:49:54;9.13;;;2.15;;
31770;SDS011;18343;50.152;8.182;2023-03-30T02:52:29;13.25;;;2.08;;
31770;SDS011;18343;50.152;8.182;2023-03-30T02:55:12;6.05;;;2.33;;
31770;SDS011;18343;50.152;8.182;2023-03-30T02:57:48;16.33;;;3.47;;
31770;SDS011;18343;50.152;8.182;2023-03-30T03:00:28;14.50;;;2.95;;
31770;SDS011;18343;50.152;8.182;2023-03-30T03:03:05;23.10;;;3.25;;
31770;SDS011;18343;50.152;8.182;2023-03-30T03:05:39;10.20;;;2.72;;
31770;SDS011;18343;50.152;8.182;2023-03-30T03:08:07;9.55;;;2.08;;
31770;SDS011;18343;50.152;8.182;2023-03-30T03:10:34;13.82;;;2.80;;
31770;SDS011;18343;50.152;8.182;2023-03-30T03:13:03;8.20;;;2.33;;
31770;SDS011;18343;50.152;8.182;2023-03-30T03:15:30;10.73;;;2.92;;
31770;SDS011;18343;50.152;8.182;2023-03-30T03:17:57;12.00;;;2.97;;
31770;SDS011;18343;50.152;8.182;2023-03-30T03:20:24;11.60;;;2.78;;
31770;SDS011;18343;50.152;8.182;2023-03-30T03:22:54;7.50;;;3.15;;
31770;SDS011;18343;50.152;8.182;2023-03-30T03:25:21;13.10;;;2.58;;
31770;SDS011;18343;50.152;8.182;2023-03-30T03:27:48;9.95;;;2.28;;
31770;SDS011;18343;50.152;8.182;2023-03-30T03:30:17;6.43;;;2.45;;
31770;SDS011;18343;50.152;8.182;2023-03-30T03:32:44;8.60;;;2.70;;
31770;SDS011;18343;50.152;8.182;2023-03-30T03:35:11;9.63;;;2.17;;
31770;SDS011;18343;50.152;8.182;2023-03-30T03:37:38;10.15;;;2.70;;
31770;SDS011;18343;50.152;8.182;2023-03-30T03:40:06;11.15;;;2.70;;
31770;SDS011;18343;50.152;8.182;2023-03-30T03:42:35;12.65;;;2.53;;
31770;SDS011;18343;50.152;8.182;2023-03-30T03:45:03;11.85;;;2.10;;
31770;SDS011;18343;50.152;8.182;2023-03-30T03:47:33;11.05;;;2.58;;
31770;SDS011;18343;50.152;8.182;2023-03-30T03:50:00;11.38;;;2.45;;
31770;SDS011;18343;50.152;8.182;2023-03-30T03:52:31;12.65;;;2.95;;
31770;SDS011;18343;50.152;8.182;2023-03-30T03:54:58;7.13;;;2.92;;
31770;SDS011;18343;50.152;8.182;2023-03-30T03:57:25;9.30;;;2.28;;
31770;SDS011;18343;50.152;8.182;2023-03-30T03:59:52;12.07;;;2.38;;
31770;SDS011;18343;50.152;8.182;2023-03-30T04:02:21;11.20;;;2.95;;
31770;SDS011;18343;50.152;8.182;2023-03-30T04:04:49;13.77;;;3.15;;
31770;SDS011;18343;50.152;8.182;2023-03-30T04:07:17;11.23;;;2.92;;
31770;SDS011;18343;50.152;8.182;2023-03-30T04:09:45;11.63;;;3.30;;
31770;SDS011;18343;50.152;8.182;2023-03-30T04:12:12;13.80;;;2.65;;
31770;SDS011;18343;50.152;8.182;2023-03-30T04:14:39;8.88;;;2.90;;
31770;SDS011;18343;50.152;8.182;2023-03-30T04:17:06;8.98;;;3.10;;
31770;SDS011;18343;50.152;8.182;2023-03-30T04:19:34;11.23;;;2.80;;
31770;SDS011;18343;50.152;8.182;2023-03-30T04:22:03;10.75;;;2.88;;
31770;SDS011;18343;50.152;8.182;2023-03-30T04:24:30;9.73;;;2.83;;
31770;SDS011;18343;50.152;8.182;2023-03-30T04:26:59;10.70;;;2.65;;
31770;SDS011;18343;50.152;8.182;2023-03-30T04:29:27;11.02;;;2.60;;
31770;SDS011;18343;50.152;8.182;2023-03-30T04:31:54;9.95;;;2.72;;
31770;SDS011;18343;50.152;8.182;2023-03-30T04:34:26;7.40;;;2.63;;
31770;SDS011;18343;50.152;8.182;2023-03-30T04:36:55;13.93;;;2.78;;
31770;SDS011;18343;50.152;8.182;2023-03-30T04:39:24;18.98;;;2.63;;
31770;SDS011;18343;50.152;8.182;2023-03-30T04:41:54;10.52;;;2.63;;
31770;SDS011;18343;50.152;8.182;2023-03-30T04:44:21;11.32;;;2.60;;
31770;SDS011;18343;50.152;8.182;2023-03-30T04:46:48;17.25;;;2.70;;
31770;SDS011;18343;50.152;8.182;2023-03-30T04:49:15;10.60;;;2.45;;
31770;SDS011;18343;50.152;8.182;2023-03-30T04:51:42;5.63;;;2.45;;
31770;SDS011;18343;50.152;8.182;2023-03-30T04:54:09;10.50;;;2.50;;
31770;SDS011;18343;50.152;8.182;2023-03-30T04:56:38;11.63;;;2.80;;
31770;SDS011;18343;50.152;8.182;2023-03-30T04:59:05;15.48;;;2.67;;
31770;SDS011;18343;50.152;8.182;2023-03-30T05:01:32;9.18;;;2.75;;
31770;SDS011;18343;50.152;8.182;2023-03-30T05:03:59;12.35;;;2.85;;
31770;SDS011;18343;50.152;8.182;2023-03-30T05:06:27;12.32;;;2.42;;
31770;SDS011;18343;50.152;8.182;2023-03-30T05:08:54;17.65;;;3.55;;
31770;SDS011;18343;50.152;8.182;2023-03-30T05:11:21;15.80;;;2.42;;
31770;SDS011;18343;50.152;8.182;2023-03-30T05:13:50;16.80;;;2.75;;
31770;SDS011;18343;50.152;8.182;2023-03-30T05:16:18;17.33;;;3.45;;
31770;SDS011;18343;50.152;8.182;2023-03-30T05:18:46;14.32;;;5.10;;
31770;SDS011;18343;50.152;8.182;2023-03-30T05:21:13;14.45;;;3.53;;
31770;SDS011;18343;50.152;8.182;2023-03-30T05:23:40;22.38;;;3.88;;
31770;SDS011;18343;50.152;8.182;2023-03-30T05:26:07;14.77;;;3.40;;
31770;SDS011;18343;50.152;8.182;2023-03-30T05:28:35;11.70;;;3.05;;
31770;SDS011;18343;50.152;8.182;2023-03-30T05:31:03;20.67;;;3.35;;
31770;SDS011;18343;50.152;8.182;2023-03-30T05:33:31;12.38;;;3.08;;
31770;SDS011;18343;50.152;8.182;2023-03-30T05:35:58;18.35;;;3.13;;
31770;SDS011;18343;50.152;8.182;2023-03-30T05:38:25;14.80;;;3.60;;
31770;SDS011;18343;50.152;8.182;2023-03-30T05:40:53;12.30;;;3.58;;
31770;SDS011;18343;50.152;8.182;2023-03-30T05:43:20;17.17;;;3.33;;
31770;SDS011;18343;50.152;8.182;2023-03-30T05:45:47;19.17;;;3.78;;
31770;SDS011;18343;50.152;8.182;2023-03-30T05:48:16;15.88;;;3.17;;
31770;SDS011;18343;50.152;8.182;2023-03-30T05:50:45;13.18;;;3.03;;
31770;SDS011;18343;50.152;8.182;2023-03-30T05:53:12;14.88;;;3.92;;
31770;SDS011;18343;50.152;8.182;2023-03-30T05:55:41;12.27;;;4.00;;
31770;SDS011;18343;50.152;8.182;2023-03-30T05:58:10;11.25;;;3.20;;
31770;SDS011;18343;50.152;8.182;2023-03-30T06:00:37;7.55;;;2.95;;
31770;SDS011;18343;50.152;8.182;2023-03-30T06:03:05;13.30;;;3.72;;
31770;SDS011;18343;50.152;8.182;2023-03-30T06:05:35;20.38;;;3.55;;
31770;SDS011;18343;50.152;8.182;2023-03-30T06:08:04;14.75;;;3.92;;
31770;SDS011;18343;50.152;8.182;2023-03-30T06:10:32;17.50;;;2.97;;
31770;SDS011;18343;50.152;8.182;2023-03-30T06:13:00;10.00;;;2.47;;
31770;SDS011;18343;50.152;8.182;2023-03-30T06:15:28;17.42;;;3.50;;
31770;SDS011;18343;50.152;8.182;2023-03-30T06:17:55;14.45;;;2.53;;
31770;SDS011;18343;50.152;8.182;2023-03-30T06:20:23;16.52;;;3.40;;
31770;SDS011;18343;50.152;8.182;2023-03-30T06:22:51;11.15;;;3.22;;
31770;SDS011;18343;50.152;8.182;2023-03-30T06:25:18;10.05;;;3.38;;
31770;SDS011;18343;50.152;8.182;2023-03-30T06:27:47;8.88;;;3.40;;
31770;SDS011;18343;50.152;8.182;2023-03-30T06:30:14;14.40;;;3.20;;
31770;SDS011;18343;50.152;8.182;2023-03-30T06:32:42;12.82;;;3.08;;
31770;SDS011;18343;50.152;8.182;2023-03-30T06:35:09;10.20;;;3.08;;
31770;SDS011;18343;50.152;8.182;2023-03-30T06:37:37;12.10;;;2.80;;
31770;SDS011;18343;50.152;8.182;2023-03-30T06:40:06;12.05;;;3.45;;
31770;SDS011;18343;50.152;8.182;2023-03-30T06:42:38;12.90;;;3.95;;
31770;SDS011;18343;50.152;8.182;2023-03-30T06:45:05;21.73;;;4.35;;
31770;SDS011;18343;50.152;8.182;2023-03-30T06:47:34;25.73;;;5.40;;
31770;SDS011;18343;50.152;8.182;2023-03-30T06:50:01;21.95;;;3.42;;
31770;SDS011;18343;50.152;8.182;2023-03-30T06:52:29;18.92;;;4.10;;
31770;SDS011;18343;50.152;8.182;2023-03-30T06:55:00;15.50;;;4.80;;
31770;SDS011;18343;50.152;8.182;2023-03-30T06:57:28;18.20;;;4.60;;
31770;SDS011;18343;50.152;8.182;2023-03-30T06:59:56;12.25;;;4.25;;
31770;SDS011;18343;50.152;8.182;2023-03-30T07:02:23;16.48;;;4.72;;
31770;SDS011;18343;50.152;8.182;2023-03-30T07:04:51;14.15;;;4.22;;
31770;SDS011;18343;50.152;8.182;2023-03-30T07:07:18;21.40;;;4.10;;
31770;SDS011;18343;50.152;8.182;2023-03-30T07:09:45;17.60;;;5.40;;
31770;SDS011;18343;50.152;8.182;2023-03-30T07:12:13;12.57;;;3.90;;
31770;SDS011;18343;50.152;8.182;2023-03-30T07:14:41;9.80;;;4.10;;
31770;SDS011;18343;50.152;8.182;2023-03-30T07:17:09;12.40;;;3.38;;
31770;SDS011;18343;50.152;8.182;2023-03-30T07:19:36;12.57;;;3.75;;
31770;SDS011;18343;50.152;8.182;2023-03-30T07:22:03;8.70;;;3.08;;
31770;SDS011;18343;50.152;8.182;2023-03-30T07:24:30;10.27;;;3.42;;
31770;SDS011;18343;50.152;8.182;2023-03-30T07:26:57;13.60;;;3.38;;
31770;SDS011;18343;50.152;8.182;2023-03-30T07:29:25;17.40;;;4.28;;
31770;SDS011;18343;50.152;8.182;2023-03-30T07:31:54;11.40;;;4.07;;
31770;SDS011;18343;50.152;8.182;2023-03-30T07:34:22;14.95;;;4.72;;
31770;SDS011;18343;50.152;8.182;2023-03-30T07:36:49;16.65;;;4.88;;
31770;SDS011;18343;50.152;8.182;2023-03-30T07:39:16;12.68;;;3.42;;
31770;SDS011;18343;50.152;8.182;2023-03-30T07:41:43;9.50;;;3.10;;
31770;SDS011;18343;50.152;8.182;2023-03-30T07:44:10;11.20;;;3.30;;
31770;SDS011;18343;50.152;8.182;2023-03-30T07:46:37;14.57;;;4.88;;
31770;SDS011;18343;50.152;8.182;2023-03-30T07:49:06;13.80;;;3.40;;
31770;SDS011;18343;50.152;8.182;2023-03-30T07:51:33;7.50;;;2.83;;
31770;SDS011;18343;50.152;8.182;2023-03-30T07:54:00;5.97;;;2.85;;
31770;SDS011;18343;50.152;8.182;2023-03-30T07:56:28;5.55;;;2.92;;
31770;SDS011;18343;50.152;8.182;2023-03-30T07:58:57;8.27;;;3.10;;
31770;SDS011;18343;50.152;8.182;2023-03-30T08:01:24;8.70;;;3.35;;
31770;SDS011;18343;50.152;8.182;2023-03-30T08:03:52;7.07;;;2.92;;
31770;SDS011;18343;50.152;8.182;2023-03-30T08:06:20;5.70;;;3.17;;
31770;SDS011;18343;50.152;8.182;2023-03-30T08:08:47;19.80;;;3.55;;
31770;SDS011;18343;50.152;8.182;2023-03-30T08:11:14;10.55;;;3.28;;
31770;SDS011;18343;50.152;8.182;2023-03-30T08:13:42;11.00;;;3.85;;
31770;SDS011;18343;50.152;8.182;2023-03-30T08:16:09;14.50;;;4.30;;
31770;SDS011;18343;50.152;8.182;2023-03-30T08:18:37;21.17;;;3.40;;
31770;SDS011;18343;50.152;8.182;2023-03-30T08:21:05;13.05;;;3.47;;
31770;SDS011;18343;50.152;8.182;2023-03-30T08:23:33;10.48;;;3.83;;
31770;SDS011;18343;50.152;8.182;2023-03-30T08:26:01;12.15;;;3.38;;
31770;SDS011;18343;50.152;8.182;2023-03-30T08:28:28;11.70;;;4.00;;
31770;SDS011;18343;50.152;8.182;2023-03-30T08:30:55;8.75;;;3.15;;
31770;SDS011;18343;50.152;8.182;2023-03-30T08:33:29;12.48;;;3.35;;
31770;SDS011;18343;50.152;8.182;2023-03-30T08:35:57;8.57;;;3.40;;
31770;SDS011;18343;50.152;8.182;2023-03-30T08:38:24;9.93;;;3.22;;
31770;SDS011;18343;50.152;8.182;2023-03-30T08:40:52;14.20;;;3.13;;
31770;SDS011;18343;50.152;8.182;2023-03-30T08:43:35;7.40;;;3.35;;
31770;SDS011;18343;50.152;8.182;2023-03-30T08:46:12;10.98;;;3.53;;
31770;SDS011;18343;50.152;8.182;2023-03-30T08:48:42;9.10;;;2.85;;
31770;SDS011;18343;50.152;8.182;2023-03-30T08:51:11;10.32;;;3.30;;
31770;SDS011;18343;50.152;8.182;2023-03-30T08:53:48;16.40;;;3.63;;
31770;SDS011;18343;50.152;8.182;2023-03-30T08:56:22;8.80;;;3.07;;
31770;SDS011;18343;50.152;8.182;2023-03-30T08:58:54;9.48;;;2.80;;
31770;SDS011;18343;50.152;8.182;2023-03-30T09:01:33;10.25;;;4.53;;
31770;SDS011;18343;50.152;8.182;2023-03-30T09:04:11;16.35;;;3.40;;
31770;SDS011;18343;50.152;8.182;2023-03-30T09:06:49;14.43;;;3.80;;
31770;SDS011;18343;50.152;8.182;2023-03-30T09:09:20;9.73;;;3.25;;
31770;SDS011;18343;50.152;8.182;2023-03-30T09:11:52;6.05;;;2.92;;
31770;SDS011;18343;50.152;8.182;2023-03-30T09:14:30;8.13;;;3.30;;
31770;SDS011;18343;50.152;8.182;2023-03-30T09:17:02;8.63;;;3.83;;
31770;SDS011;18343;50.152;8.182;2023-03-30T09:19:39;12.30;;;3.10;;
31770;SDS011;18343;50.152;8.182;2023-03-30T09:22:14;7.18;;;2.90;;
31770;SDS011;18343;50.152;8.182;2023-03-30T09:24:43;8.95;;;3.20;;
31770;SDS011;18343;50.152;8.182;2023-03-30T09:27:13;12.73;;;3.25;;
31770;SDS011;18343;50.152;8.182;2023-03-30T09:29:49;9.43;;;2.67;;
31770;SDS011;18343;50.152;8.182;2023-03-30T09:32:23;10.52;;;3.58;;
31770;SDS011;18343;50.152;8.182;2023-03-30T09:34:58;9.35;;;2.65;;
31770;SDS011;18343;50.152;8.182;2023-03-30T09:37:28;10.07;;;2.63;;
31770;SDS011;18343;50.152;8.182;2023-03-30T09:39:56;16.33;;;2.92;;
31770;SDS011;18343;50.152;8.182;2023-03-30T09:42:26;7.97;;;2.83;;
31770;SDS011;18343;50.152;8.182;2023-03-30T09:45:04;7.20;;;2.03;;
31770;SDS011;18343;50.152;8.182;2023-03-30T09:47:39;11.65;;;2.50;;
31770;SDS011;18343;50.152;8.182;2023-03-30T09:50:08;9.73;;;2.25;;
31770;SDS011;18343;50.152;8.182;2023-03-30T09:52:37;8.40;;;1.88;;
31770;SDS011;18343;50.152;8.182;2023-03-30T09:55:15;8.23;;;2.00;;
31770;SDS011;18343;50.152;8.182;2023-03-30T09:57:52;8.02;;;2.13;;
31770;SDS011;18343;50.152;8.182;2023-03-30T10:00:24;6.93;;;1.75;;
31770;SDS011;18343;50.152;8.182;2023-03-30T10:02:55;10.57;;;2.28;;
31770;SDS011;18343;50.152;8.182;2023-03-30T10:05:24;11.93;;;2.08;;
31770;SDS011;18343;50.152;8.182;2023-03-30T10:07:52;9.40;;;1.92;;
31770;SDS011;18343;50.152;8.182;2023-03-30T10:10:26;5.45;;;1.70;;
31770;SDS011;18343;50.152;8.182;2023-03-30T10:13:05;9.18;;;2.17;;
31770;SDS011;18343;50.152;8.182;2023-03-30T10:15:38;6.90;;;2.10;;
31770;SDS011;18343;50.152;8.182;2023-03-30T10:18:20;6.18;;;1.63;;
31770;SDS011;18343;50.152;8.182;2023-03-30T10:20:52;5.53;;;1.73;;
31770;SDS011;18343;50.152;8.182;2023-03-30T10:23:28;6.80;;;2.00;;
31770;SDS011;18343;50.152;8.182;2023-03-30T10:25:59;10.25;;;2.05;;
31770;SDS011;18343;50.152;8.182;2023-03-30T10:28:30;9.82;;;2.50;;
31770;SDS011;18343;50.152;8.182;2023-03-30T10:31:00;8.10;;;1.80;;
31770;SDS011;18343;50.152;8.182;2023-03-30T10:33:30;5.35;;;1.60;;
31770;SDS011;18343;50.152;8.182;2023-03-30T10:36:03;11.27;;;1.80;;
31770;SDS011;18343;50.152;8.182;2023-03-30T10:38:32;4.05;;;1.42;;
31770;SDS011;18343;50.152;8.182;2023-03-30T10:41:02;5.90;;;1.40;;
31770;SDS011;18343;50.152;8.182;2023-03-30T10:43:36;4.25;;;1.13;;
31770;SDS011;18343;50.152;8.182;2023-03-30T10:46:06;3.92;;;1.27;;
31770;SDS011;18343;50.152;8.182;2023-03-30T10:48:40;3.00;;;1.25;;
31770;SDS011;18343;50.152;8.182;2023-03-30T10:51:26;3.20;;;1.38;;
31770;SDS011;18343;50.152;8.182;2023-03-30T10:54:06;7.03;;;1.58;;
31770;SDS011;18343;50.152;8.182;2023-03-30T10:56:43;4.22;;;1.20;;
31770;SDS011;18343;50.152;8.182;2023-03-30T11:05:17;3.95;;;1.48;;
31770;SDS011;18343;50.152;8.182;2023-03-30T11:07:49;6.03;;;1.50;;
31770;SDS011;18343;50.152;8.182;2023-03-30T11:10:20;3.55;;;0.95;;
31770;SDS011;18343;50.152;8.182;2023-03-30T11:12:54;7.72;;;1.55;;
31770;SDS011;18343;50.152;8.182;2023-03-30T11:15:28;5.20;;;1.37;;
31770;SDS011;18343;50.152;8.182;2023-03-30T11:18:02;6.10;;;1.20;;
31770;SDS011;18343;50.152;8.182;2023-03-30T11:20:38;5.28;;;1.42;;
31770;SDS011;18343;50.152;8.182;2023-03-30T11:23:15;6.47;;;1.38;;
31770;SDS011;18343;50.152;8.182;2023-03-30T11:25:53;4.95;;;1.52;;
31770;SDS011;18343;50.152;8.182;2023-03-30T11:28:37;4.35;;;1.13;;
31770;SDS011;18343;50.152;8.182;2023-03-30T11:31:26;4.45;;;1.05;;
31770;SDS011;18343;50.152;8.182;2023-03-30T11:34:21;4.65;;;1.08;;
31770;SDS011;18343;50.152;8.182;2023-03-30T11:36:58;4.30;;;0.70;;
31770;SDS011;18343;50.152;8.182;2023-03-30T11:39:32;4.45;;;1.20;;
31770;SDS011;18343;50.152;8.182;2023-03-30T11:42:08;4.97;;;1.25;;
31770;SDS011;18343;50.152;8.182;2023-03-30T11:44:42;5.13;;;1.13;;
31770;SDS011;18343;50.152;8.182;2023-03-30T11:47:21;3.58;;;1.30;;
31770;SDS011;18343;50.152;8.182;2023-03-30T11:50:12;2.65;;;0.93;;
31770;SDS011;18343;50.152;8.182;2023-03-30T11:52:54;3.65;;;1.02;;
31770;SDS011;18343;50.152;8.182;2023-03-30T11:55:45;5.03;;;1.17;;
31770;SDS011;18343;50.152;8.182;2023-03-30T11:58:26;7.50;;;1.42;;
31770;SDS011;18343;50.152;8.182;2023-03-30T12:01:03;4.88;;;1.27;;
31770;SDS011;18343;50.152;8.182;2023-03-30T12:03:46;6.72;;;2.25;;
31770;SDS011;18343;50.152;8.182;2023-03-30T12:06:22;6.07;;;1.38;;
31770;SDS011;18343;50.152;8.182;2023-03-30T12:08:58;4.80;;;1.27;;
31770;SDS011;18343;50.152;8.182;2023-03-30T12:11:47;7.53;;;1.52;;
31770;SDS011;18343;50.152;8.182;2023-03-30T12:17:20;6.55;;;1.20;;
31770;SDS011;18343;50.152;8.182;2023-03-30T12:20:09;6.68;;;1.05;;
31770;SDS011;18343;50.152;8.182;2023-03-30T12:22:46;4.35;;;1.30;;
31770;SDS011;18343;50.152;8.182;2023-03-30T12:25:23;8.05;;;1.25;;
31770;SDS011;18343;50.152;8.182;2023-03-30T12:27:59;6.32;;;1.55;;
31770;SDS011;18343;50.152;8.182;2023-03-30T12:30:44;10.60;;;2.83;;
31770;SDS011;18343;50.152;8.182;2023-03-30T12:33:24;5.65;;;1.23;;
31770;SDS011;18343;50.152;8.182;2023-03-30T12:35:55;3.55;;;1.10;;
31770;SDS011;18343;50.152;8.182;2023-03-30T12:38:25;3.78;;;1.08;;
31770;SDS011;18343;50.152;8.182;2023-03-30T12:41:06;4.28;;;1.00;;
31770;SDS011;18343;50.152;8.182;2023-03-30T12:43:58;3.40;;;0.82;;
31770;SDS011;18343;50.152;8.182;2023-03-30T12:46:58;3.67;;;1.17;;
31770;SDS011;18343;50.152;8.182;2023-03-30T12:50:05;6.18;;;1.23;;
31770;SDS011;18343;50.152;8.182;2023-03-30T12:52:52;2.22;;;0.88;;
31770;SDS011;18343;50.152;8.182;2023-03-30T12:55:41;7.00;;;1.30;;
31770;SDS011;18343;50.152;8.182;2023-03-30T12:58:15;2.53;;;1.02;;
31770;SDS011;18343;50.152;8.182;2023-03-30T13:01:19;1.08;;;0.60;;
31770;SDS011;18343;50.152;8.182;2023-03-30T13:04:05;7.72;;;1.20;;
31770;SDS011;18343;50.152;8.182;2023-03-30T13:06:35;3.40;;;1.02;;
31770;SDS011;18343;50.152;8.182;2023-03-30T13:15:03;3.60;;;1.10;;
31770;SDS011;18343;50.152;8.182;2023-03-30T13:17:57;3.58;;;1.20;;
31770;SDS011;18343;50.152;8.182;2023-03-30T13:20:30;6.75;;;1.30;;
31770;SDS011;18343;50.152;8.182;2023-03-30T13:25:59;1.70;;;0.70;;
31770;SDS011;18343;50.152;8.182;2023-03-30T13:34:47;1.58;;;0.73;;
31770;SDS011;18343;50.152;8.182;2023-03-30T13:37:29;4.35;;;0.75;;
31770;SDS011;18343;50.152;8.182;2023-03-30T13:40:14;2.47;;;1.00;;
31770;SDS011;18343;50.152;8.182;2023-03-30T13:42:48;4.60;;;1.08;;
31770;SDS011;18343;50.152;8.182;2023-03-30T13:45:30;3.53;;;0.70;;
31770;SDS011;18343;50.152;8.182;2023-03-30T13:48:12;5.78;;;1.10;;
31770;SDS011;18343;50.152;8.182;2023-03-30T13:50:56;5.22;;;1.55;;
31770;SDS011;18343;50.152;8.182;2023-03-30T13:53:28;3.85;;;1.00;;
31770;SDS011;18343;50.152;8.182;2023-03-30T13:56:04;6.43;;;1.17;;
31770;SDS011;18343;50.152;8.182;2023-03-30T13:58:34;4.90;;;0.60;;
31770;SDS011;18343;50.152;8.182;2023-03-30T14:01:04;5.07;;;0.90;;
31770;SDS011;18343;50.152;8.182;2023-03-30T14:03:37;5.78;;;1.23;;
31770;SDS011;18343;50.152;8.182;2023-03-30T14:06:07;2.00;;;0.52;;
31770;SDS011;18343;50.152;8.182;2023-03-30T14:08:45;4.80;;;1.23;;
31770;SDS011;18343;50.152;8.182;2023-03-30T14:11:16;2.35;;;0.70;;
31770;SDS011;18343;50.152;8.182;2023-03-30T14:13:48;2.53;;;0.70;;
31770;SDS011;18343;50.152;8.182;2023-03-30T14:16:18;7.15;;;0.88;;
31770;SDS011;18343;50.152;8.182;2023-03-30T14:18:48;1.92;;;0.80;;
31770;SDS011;18343;50.152;8.182;2023-03-30T14:21:17;2.38;;;0.93;;
31770;SDS011;18343;50.152;8.182;2023-03-30T14:23:48;2.85;;;0.75;;
31770;SDS011;18343;50.152;8.182;2023-03-30T14:26:21;3.45;;;0.68;;
31770;SDS011;18343;50.152;8.182;2023-03-30T14:28:54;1.75;;;0.68;;
31770;SDS011;18343;50.152;8.182;2023-03-30T14:31:22;0.75;;;0.40;;
31770;SDS011;18343;50.152;8.182;2023-03-30T14:33:51;2.75;;;0.85;;
31770;SDS011;18343;50.152;8.182;2023-03-30T14:36:19;2.38;;;0.60;;
31770;SDS011;18343;50.152;8.182;2023-03-30T14:38:48;6.15;;;0.90;;
31770;SDS011;18343;50.152;8.182;2023-03-30T14:41:18;3.47;;;0.70;;
31770;SDS011;18343;50.152;8.182;2023-03-30T14:43:50;2.63;;;0.95;;
31770;SDS011;18343;50.152;8.182;2023-03-30T14:46:22;3.78;;;1.00;;
31770;SDS011;18343;50.152;8.182;2023-03-30T14:48:53;3.83;;;0.88;;
31770;SDS011;18343;50.152;8.182;2023-03-30T14:51:24;4.57;;;1.10;;
31770;SDS011;18343;50.152;8.182;2023-03-30T14:53:58;2.22;;;1.17;;
31770;SDS011;18343;50.152;8.182;2023-03-30T14:56:26;2.65;;;0.57;;
31770;SDS011;18343;50.152;8.182;2023-03-30T14:58:55;4.57;;;0.85;;
31770;SDS011;18343;50.152;8.182;2023-03-30T15:01:24;5.40;;;0.85;;
31770;SDS011;18343;50.152;8.182;2023-03-30T15:03:55;3.35;;;0.70;;
31770;SDS011;18343;50.152;8.182;2023-03-30T15:06:24;3.53;;;1.27;;
31770;SDS011;18343;50.152;8.182;2023-03-30T15:08:57;4.57;;;0.90;;
31770;SDS011;18343;50.152;8.182;2023-03-30T15:11:27;3.00;;;0.90;;
31770;SDS011;18343;50.152;8.182;2023-03-30T15:14:00;4.07;;;1.00;;
31770;SDS011;18343;50.152;8.182;2023-03-30T15:16:32;12.38;;;1.10;;
31770;SDS011;18343;50.152;8.182;2023-03-30T15:19:01;5.72;;;1.17;;
31770;SDS011;18343;50.152;8.182;2023-03-30T15:21:32;5.00;;;0.80;;
31770;SDS011;18343;50.152;8.182;2023-03-30T15:24:03;4.75;;;1.30;;
31770;SDS011;18343;50.152;8.182;2023-03-30T15:26:33;8.77;;;1.30;;
31770;SDS011;18343;50.152;8.182;2023-03-30T15:29:05;4.65;;;1.05;;
31770;SDS011;18343;50.152;8.182;2023-03-30T15:31:32;4.47;;;0.85;;
31770;SDS011;18343;50.152;8.182;2023-03-30T15:33:59;4.75;;;0.98;;
31770;SDS011;18343;50.152;8.182;2023-03-30T15:36:34;3.95;;;1.05;;
31770;SDS011;18343;50.152;8.182;2023-03-30T15:39:16;9.63;;;1.08;;
31770;SDS011;18343;50.152;8.182;2023-03-30T15:41:46;3.55;;;0.88;;
31770;SDS011;18343;50.152;8.182;2023-03-30T15:44:26;3.72;;;0.95;;
31770;SDS011;18343;50.152;8.182;2023-03-30T15:46:54;2.22;;;0.60;;